Time;durP1;ratioP1;P1;durP2;ratioP2;P2;SDS_P1;SDS_P2;PMS_P1;PMS_P2;Temp;Humidity;BMP_temperature;BMP_pressure;BME280_temperature;BME280_humidity;BME280_pressure;Samples;Min_cycle;Max_cycle;Signal;HPM_P1;HPM_P2
2022/07/11 00:02:11;;;;;;;;;;;24.60;96.10;;;;;;5039332;28;19928;-53
2022/07/11 00:04:40;;;;;;;;;;;24.50;95.90;;;;;;5051659;28;19936;-52
2022/07/11 00:07:07;;;;;;;;;;;24.50;96.00;;;;;;5044254;28;19933;-56
2022/07/11 00:09:35;;;;;;;;;;;24.60;96.00;;;;;;5052644;28;19929;-51
2022/07/11 00:12:02;;;;;;;;;;;24.50;96.00;;;;;;5037151;28;19940;-49
2022/07/11 00:14:29;;;;;;;;;;;24.50;96.00;;;;;;5045586;28;19929;-54
2022/07/11 00:16:56;;;;;;;;;;;24.50;96.10;;;;;;5041360;28;19936;-54
2022/07/11 00:19:23;;;;;;;;;;;24.50;96.10;;;;;;5049913;28;19928;-55
2022/07/11 00:21:51;;;;;;;;;;;24.50;96.10;;;;;;5044312;28;19933;-52
2022/07/11 00:24:19;;;;;;;;;;;24.50;96.10;;;;;;5041983;28;19936;-54
2022/07/11 00:26:48;;;;;;;;;;;24.50;96.10;;;;;;5048679;28;19929;-53
2022/07/11 00:29:15;;;;;;;;;;;24.50;96.10;;;;;;5050634;28;19925;-52
2022/07/11 00:31:42;;;;;;;;;;;24.50;96.20;;;;;;5020016;28;19963;-53
2022/07/11 00:34:10;;;;;;;;;;;24.50;96.20;;;;;;5046018;28;19945;-53
2022/07/11 00:36:37;;;;;;;;;;;24.50;96.20;;;;;;5037016;28;20281;-53
2022/07/11 00:39:04;;;;;;;;;;;24.50;96.20;;;;;;5035364;28;19936;-54
2022/07/11 00:41:32;;;;;;;;;;;24.50;96.20;;;;;;5050234;28;19994;-57
2022/07/11 00:44:01;;;;;;;;;;;24.50;96.20;;;;;;5047253;28;19928;-53
2022/07/11 00:46:28;;;;;;;;;;;24.50;96.30;;;;;;5039537;28;19932;-52
2022/07/11 00:48:57;;;;;;;;;;;24.50;96.30;;;;;;5052319;28;19935;-51
2022/07/11 00:51:24;;;;;;;;;;;24.50;96.30;;;;;;5051962;28;19929;-54
2022/07/11 00:53:53;;;;;;;;;;;24.50;96.30;;;;;;5039765;28;19929;-53
2022/07/11 00:56:21;;;;;;;;;;;24.50;96.40;;;;;;5053139;28;19932;-50
2022/07/11 00:58:48;;;;;;;;;;;24.50;96.40;;;;;;5037686;28;20346;-55
2022/07/11 01:01:15;;;;;;;;;;;24.50;96.40;;;;;;5047216;28;19929;-51
2022/07/11 01:03:43;;;;;;;;;;;24.50;96.40;;;;;;5039153;28;19928;-55
2022/07/11 01:06:11;;;;;;;;;;;24.50;96.40;;;;;;5046942;28;19928;-53
2022/07/11 01:08:39;;;;;;;;;;;24.50;96.40;;;;;;5043761;28;19928;-52
2022/07/11 01:11:12;;;;;;;;;;;24.50;96.40;;;;;;5046218;28;19936;-52
2022/07/11 01:13:40;;;;;;;;;;;24.50;96.40;;;;;;5035886;28;19929;-53
2022/07/11 01:16:12;;;;;;;;;;;24.50;96.40;;;;;;5048849;28;19933;-55
2022/07/11 01:18:44;;;;;;;;;;;24.50;96.40;;;;;;5021341;28;19928;-50
2022/07/11 01:21:18;;;;;;;;;;;24.50;96.50;;;;;;5049657;28;19944;-50
2022/07/11 01:23:46;;;;;;;;;;;24.50;96.50;;;;;;5036157;28;19929;-50
2022/07/11 01:26:15;;;;;;;;;;;24.50;96.50;;;;;;5046990;28;19935;-50
2022/07/11 01:28:42;;;;;;;;;;;24.50;96.50;;;;;;5052815;28;19928;-51
2022/07/11 01:31:10;;;;;;;;;;;24.50;96.50;;;;;;5035230;28;19929;-50
2022/07/11 01:33:38;;;;;;;;;;;24.50;96.50;;;;;;5051639;28;19932;-53
2022/07/11 01:36:05;;;;;;;;;;;24.50;96.60;;;;;;5042035;28;20317;-53
2022/07/11 01:38:32;;;;;;;;;;;24.50;96.60;;;;;;5034810;28;19936;-52
2022/07/11 01:40:59;;;;;;;;;;;24.50;96.60;;;;;;5053916;28;19940;-54
2022/07/11 01:43:27;;;;;;;;;;;24.50;96.60;;;;;;5052733;28;19936;-52
2022/07/11 01:45:54;;;;;;;;;;;24.50;96.60;;;;;;5058066;28;20367;-50
2022/07/11 01:48:22;;;;;;;;;;;24.50;96.60;;;;;;5036445;28;19929;-50
2022/07/11 01:50:49;;;;;;;;;;;24.50;96.60;;;;;;5027450;28;19924;-56
2022/07/11 01:53:16;;;;;;;;;;;24.50;96.70;;;;;;5051810;28;19936;-54
2022/07/11 01:55:44;;;;;;;;;;;24.50;96.60;;;;;;5047051;28;19935;-53
2022/07/11 01:58:31;;;;;;;;;;;24.50;96.60;;;;;;5046039;28;19932;-52
2022/07/11 02:00:59;;;;;;;;;;;24.50;96.70;;;;;;5042796;28;19929;-50
2022/07/11 02:03:26;;;;;;;;;;;24.50;96.70;;;;;;5052878;28;20292;-52
2022/07/11 02:05:53;;;;;;;;;;;24.50;96.70;;;;;;5034571;28;19928;-54
2022/07/11 02:08:20;;;;;;;;;;;24.50;96.70;;;;;;5036568;28;19933;-52
2022/07/11 02:10:49;;;;;;;;;;;24.50;96.70;;;;;;5055343;28;19938;-55
2022/07/11 02:13:17;;;;;;;;;;;24.50;96.70;;;;;;5054676;28;19935;-57
2022/07/11 02:15:44;;;;;;;;;;;24.50;96.70;;;;;;5041799;28;19928;-55
2022/07/11 02:18:12;;;;;;;;;;;24.50;96.70;;;;;;5031883;28;19933;-50
2022/07/11 02:20:40;;;;;;;;;;;24.50;96.70;;;;;;5045947;28;19929;-51
2022/07/11 02:23:08;;;;;;;;;;;24.50;96.70;;;;;;5030406;28;20073;-54
2022/07/11 02:25:38;;;;;;;;;;;24.50;96.70;;;;;;5047379;28;20323;-50
2022/07/11 02:28:09;;;;;;;;;;;24.40;96.70;;;;;;5045447;28;19936;-54
2022/07/11 02:30:40;;;;;;;;;;;24.40;96.70;;;;;;5049698;28;19943;-50
2022/07/11 02:33:08;;;;;;;;;;;24.50;96.70;;;;;;5048332;28;19924;-53
2022/07/11 02:35:37;;;;;;;;;;;24.40;96.70;;;;;;5052088;28;19936;-56
2022/07/11 02:38:04;;;;;;;;;;;24.40;96.80;;;;;;5030206;28;20020;-52
2022/07/11 02:40:31;;;;;;;;;;;24.40;96.80;;;;;;5054346;28;19928;-54
2022/07/11 02:42:58;;;;;;;;;;;24.40;96.80;;;;;;5041151;28;20676;-54
2022/07/11 02:45:26;;;;;;;;;;;24.40;96.80;;;;;;5044934;28;20533;-51
2022/07/11 02:47:53;;;;;;;;;;;24.40;96.90;;;;;;5048363;28;19929;-54
2022/07/11 02:50:20;;;;;;;;;;;24.40;96.80;;;;;;5021002;28;20391;-53
2022/07/11 02:52:47;;;;;;;;;;;24.40;96.90;;;;;;5050418;28;19935;-51
2022/07/11 02:55:15;;;;;;;;;;;24.40;96.90;;;;;;5045620;28;20296;-52
2022/07/11 02:57:42;;;;;;;;;;;24.40;96.90;;;;;;5060041;28;20350;-54
2022/07/11 03:00:12;;;;;;;;;;;24.40;96.90;;;;;;5051271;28;19936;-53
2022/07/11 03:02:40;;;;;;;;;;;24.40;97.00;;;;;;5035363;28;19936;-55
2022/07/11 03:05:07;;;;;;;;;;;24.40;97.20;;;;;;5042016;28;19955;-51
2022/07/11 03:07:34;;;;;;;;;;;24.40;96.90;;;;;;5044677;28;19925;-55
2022/07/11 03:10:02;;;;;;;;;;;24.40;97.00;;;;;;5038294;28;19928;-57
2022/07/11 03:12:29;;;;;;;;;;;24.40;97.00;;;;;;5053677;28;19935;-57
2022/07/11 03:14:56;;;;;;;;;;;24.40;97.00;;;;;;5033727;28;19929;-54
2022/07/11 03:17:24;;;;;;;;;;;24.40;97.00;;;;;;5063981;28;19935;-53
2022/07/11 03:19:51;;;;;;;;;;;24.40;97.00;;;;;;5060891;28;19929;-56
2022/07/11 03:22:18;;;;;;;;;;;24.40;97.00;;;;;;5070491;28;19929;-57
2022/07/11 03:24:45;;;;;;;;;;;24.40;97.00;;;;;;5048007;28;19929;-50
2022/07/11 03:27:13;;;;;;;;;;;24.40;97.20;;;;;;5046749;28;19936;-52
2022/07/11 03:29:40;;;;;;;;;;;24.40;97.00;;;;;;5055208;28;19924;-53
2022/07/11 03:32:08;;;;;;;;;;;24.40;97.10;;;;;;5050534;28;19995;-52
2022/07/11 03:34:36;;;;;;;;;;;24.40;97.10;;;;;;5044050;28;19924;-52
2022/07/11 03:37:03;;;;;;;;;;;24.40;97.00;;;;;;5056770;28;20412;-51
2022/07/11 03:39:30;;;;;;;;;;;24.40;97.00;;;;;;5052013;28;19928;-52
2022/07/11 03:41:57;;;;;;;;;;;24.40;97.00;;;;;;5042043;28;19929;-51
2022/07/11 03:44:25;;;;;;;;;;;24.40;97.10;;;;;;5035250;28;19929;-50
2022/07/11 03:46:52;;;;;;;;;;;24.40;97.10;;;;;;5050433;28;19936;-55
2022/07/11 03:49:19;;;;;;;;;;;24.40;97.00;;;;;;5042253;28;19933;-55
2022/07/11 03:51:46;;;;;;;;;;;24.40;97.10;;;;;;5049984;28;19925;-52
2022/07/11 03:54:14;;;;;;;;;;;24.40;97.10;;;;;;5032027;28;19928;-53
2022/07/11 03:56:41;;;;;;;;;;;24.40;97.10;;;;;;5031947;28;19932;-51
2022/07/11 03:59:09;;;;;;;;;;;24.40;97.10;;;;;;5026734;28;20431;-54
2022/07/11 04:01:36;;;;;;;;;;;24.40;97.10;;;;;;5054792;28;19935;-54
2022/07/11 04:04:05;;;;;;;;;;;24.30;97.10;;;;;;5036672;28;19929;-53
2022/07/11 04:06:32;;;;;;;;;;;24.40;97.20;;;;;;5040591;28;19929;-51
2022/07/11 04:08:59;;;;;;;;;;;24.40;97.20;;;;;;5049984;28;19933;-56
2022/07/11 04:11:26;;;;;;;;;;;24.30;97.20;;;;;;5065704;28;19929;-53
2022/07/11 04:13:54;;;;;;;;;;;24.40;97.20;;;;;;5029627;28;19936;-55
2022/07/11 04:16:21;;;;;;;;;;;24.30;97.20;;;;;;5049748;28;19933;-53
2022/07/11 04:18:48;;;;;;;;;;;24.30;97.20;;;;;;5049382;28;20035;-52
2022/07/11 04:21:15;;;;;;;;;;;24.30;97.20;;;;;;5038058;28;19936;-50
2022/07/11 04:23:42;;;;;;;;;;;24.30;97.20;;;;;;5041095;28;19929;-54
2022/07/11 04:26:10;;;;;;;;;;;24.40;97.20;;;;;;5043537;28;20309;-53
2022/07/11 04:28:37;;;;;;;;;;;24.30;97.20;;;;;;5036605;28;19928;-52
2022/07/11 04:31:04;;;;;;;;;;;24.30;97.20;;;;;;5049289;28;19928;-51
2022/07/11 04:33:32;;;;;;;;;;;24.40;97.20;;;;;;5032326;28;19936;-51
2022/07/11 04:35:59;;;;;;;;;;;24.30;97.20;;;;;;5053435;28;20355;-55
2022/07/11 04:38:26;;;;;;;;;;;24.30;97.20;;;;;;5053707;28;19929;-51
2022/07/11 04:40:53;;;;;;;;;;;24.30;97.20;;;;;;5044394;28;19929;-50
2022/07/11 04:43:20;;;;;;;;;;;24.30;97.20;;;;;;5029799;28;19953;-53
2022/07/11 04:45:47;;;;;;;;;;;24.30;97.20;;;;;;5046661;28;20390;-52
2022/07/11 04:48:15;;;;;;;;;;;24.30;97.20;;;;;;5038878;28;19925;-51
2022/07/11 04:50:42;;;;;;;;;;;24.30;97.20;;;;;;5045249;28;19929;-54
2022/07/11 04:53:09;;;;;;;;;;;24.30;97.30;;;;;;5041891;28;19933;-58
2022/07/11 04:55:39;;;;;;;;;;;24.30;97.30;;;;;;5035971;28;20385;-52
2022/07/11 04:58:06;;;;;;;;;;;24.40;97.30;;;;;;5042060;28;19925;-53
2022/07/11 05:00:34;;;;;;;;;;;24.30;97.30;;;;;;5045134;28;19936;-52
2022/07/11 05:03:08;;;;;;;;;;;24.40;97.30;;;;;;5058111;28;19928;-52
2022/07/11 05:05:36;;;;;;;;;;;24.30;97.30;;;;;;5041849;28;19932;-53
2022/07/11 05:08:03;;;;;;;;;;;24.30;97.30;;;;;;5045403;28;20007;-50
2022/07/11 05:10:33;;;;;;;;;;;24.40;97.30;;;;;;5051083;28;19928;-53
2022/07/11 05:13:00;;;;;;;;;;;24.40;97.30;;;;;;5041916;28;19928;-51
2022/07/11 05:15:27;;;;;;;;;;;24.40;97.30;;;;;;5022185;28;19933;-52
2022/07/11 05:17:54;;;;;;;;;;;24.40;97.30;;;;;;5034122;28;19936;-51
2022/07/11 05:20:22;;;;;;;;;;;24.40;97.30;;;;;;5059057;28;20311;-49
2022/07/11 05:22:49;;;;;;;;;;;24.40;97.40;;;;;;5034278;28;19933;-54
2022/07/11 05:25:16;;;;;;;;;;;24.40;97.30;;;;;;5043413;28;20293;-50
2022/07/11 05:27:43;;;;;;;;;;;24.40;97.30;;;;;;5045712;28;19929;-52
2022/07/11 05:30:10;;;;;;;;;;;24.40;97.30;;;;;;5049445;28;19931;-52
2022/07/11 05:32:37;;;;;;;;;;;24.30;97.60;;;;;;5041556;28;19928;-54
2022/07/11 05:35:05;;;;;;;;;;;24.40;97.30;;;;;;5044108;28;20312;-52
2022/07/11 05:37:32;;;;;;;;;;;24.30;97.30;;;;;;5048834;28;19932;-53
2022/07/11 05:39:59;;;;;;;;;;;24.40;97.30;;;;;;5040870;28;19933;-54
2022/07/11 05:42:32;;;;;;;;;;;24.40;97.30;;;;;;5037777;28;19936;-52
2022/07/11 05:44:59;;;;;;;;;;;24.40;97.30;;;;;;5044599;28;19951;-53
2022/07/11 05:47:26;;;;;;;;;;;24.30;97.30;;;;;;5035284;28;19929;-54
2022/07/11 05:49:53;;;;;;;;;;;24.30;97.30;;;;;;5043285;28;19928;-53
2022/07/11 05:52:20;;;;;;;;;;;24.40;97.30;;;;;;5050121;28;19940;-51
2022/07/11 05:54:47;;;;;;;;;;;24.40;97.30;;;;;;5034033;28;19929;-57
2022/07/11 05:57:14;;;;;;;;;;;24.30;97.20;;;;;;5053370;28;19939;-56
2022/07/11 05:59:42;;;;;;;;;;;24.40;97.30;;;;;;5040478;28;20392;-54
2022/07/11 06:02:09;;;;;;;;;;;24.30;97.30;;;;;;5055338;28;19939;-54
2022/07/11 06:04:36;;;;;;;;;;;24.30;97.30;;;;;;5044229;28;19928;-51
2022/07/11 06:07:04;;;;;;;;;;;24.30;97.30;;;;;;5046352;28;19929;-53
2022/07/11 06:09:31;;;;;;;;;;;24.30;97.30;;;;;;5035917;28;19931;-55
2022/07/11 06:11:58;;;;;;;;;;;24.30;97.30;;;;;;5048654;28;20695;-54
2022/07/11 06:14:26;;;;;;;;;;;24.40;97.30;;;;;;5045298;28;20420;-52
2022/07/11 06:16:53;;;;;;;;;;;24.30;97.30;;;;;;5044407;28;19935;-55
2022/07/11 06:19:20;;;;;;;;;;;24.30;97.30;;;;;;5036537;28;19933;-53
2022/07/11 06:21:47;;;;;;;;;;;24.30;97.20;;;;;;5047906;28;19936;-53
2022/07/11 06:24:15;;;;;;;;;;;24.30;97.60;;;;;;5037844;28;20320;-54
2022/07/11 06:26:42;;;;;;;;;;;24.30;97.60;;;;;;5041070;28;20393;-53
2022/07/11 06:29:09;;;;;;;;;;;24.40;98.00;;;;;;5048768;28;19944;-58
2022/07/11 06:31:36;;;;;;;;;;;24.40;97.90;;;;;;5031440;28;19933;-54
2022/07/11 06:34:03;;;;;;;;;;;24.40;97.80;;;;;;5040608;28;19928;-54
2022/07/11 06:36:30;;;;;;;;;;;24.40;97.80;;;;;;5035249;28;19948;-54
2022/07/11 06:38:57;;;;;;;;;;;24.40;97.60;;;;;;5053719;28;19928;-55
2022/07/11 06:41:24;;;;;;;;;;;24.50;97.70;;;;;;5044797;28;19929;-53
2022/07/11 06:43:52;;;;;;;;;;;24.50;97.70;;;;;;5033106;28;20314;-53
2022/07/11 06:46:19;;;;;;;;;;;24.50;97.80;;;;;;5029039;28;19933;-57
2022/07/11 06:48:46;;;;;;;;;;;24.60;97.60;;;;;;5037770;28;19925;-57
2022/07/11 06:51:13;;;;;;;;;;;24.60;97.40;;;;;;5015402;28;19929;-56
2022/07/11 06:53:41;;;;;;;;;;;24.70;97.30;;;;;;5035722;28;19929;-57
2022/07/11 06:56:08;;;;;;;;;;;24.70;97.20;;;;;;5035099;28;20363;-55
2022/07/11 06:58:35;;;;;;;;;;;24.70;97.20;;;;;;5040888;28;19929;-56
2022/07/11 07:01:05;;;;;;;;;;;24.60;97.20;;;;;;5018382;28;20396;-52
2022/07/11 07:03:33;;;;;;;;;;;24.60;97.10;;;;;;5044001;28;19951;-51
2022/07/11 07:06:01;;;;;;;;;;;24.60;97.20;;;;;;5047221;28;19928;-48
2022/07/11 07:08:28;;;;;;;;;;;24.60;97.00;;;;;;5035948;28;20036;-54
2022/07/11 07:10:56;;;;;;;;;;;24.50;96.70;;;;;;5032810;28;19929;-57
2022/07/11 07:13:25;;;;;;;;;;;24.50;96.70;;;;;;5030737;28;20220;-54
2022/07/11 07:15:53;;;;;;;;;;;24.50;96.50;;;;;;5019229;28;20311;-54
2022/07/11 07:18:20;;;;;;;;;;;24.50;96.10;;;;;;5044211;28;19940;-50
2022/07/11 07:20:50;;;;;;;;;;;24.50;96.10;;;;;;5025676;28;19936;-51
2022/07/11 07:23:18;;;;;;;;;;;24.50;95.70;;;;;;5039245;28;20647;-55
2022/07/11 07:25:45;;;;;;;;;;;24.50;95.90;;;;;;5036230;28;19933;-51
2022/07/11 07:28:12;;;;;;;;;;;24.40;95.50;;;;;;5039104;28;19935;-49
2022/07/11 07:30:40;;;;;;;;;;;24.40;95.30;;;;;;5052196;28;20285;-52
2022/07/11 07:33:07;;;;;;;;;;;24.40;95.00;;;;;;5032550;28;19952;-54
2022/07/11 07:35:34;;;;;;;;;;;24.40;94.70;;;;;;5044672;28;20289;-53
2022/07/11 07:38:02;;;;;;;;;;;24.40;94.40;;;;;;5047196;28;19935;-58
2022/07/11 07:40:29;;;;;;;;;;;24.30;94.10;;;;;;5043313;28;20275;-55
2022/07/11 07:42:56;;;;;;;;;;;24.30;93.70;;;;;;5046938;28;20460;-53
2022/07/11 07:45:23;;;;;;;;;;;24.30;93.60;;;;;;5045182;28;19928;-50
2022/07/11 07:47:51;;;;;;;;;;;24.30;93.30;;;;;;5049589;28;19931;-51
2022/07/11 07:50:18;;;;;;;;;;;24.30;93.20;;;;;;5042867;28;19933;-54
2022/07/11 07:52:45;;;;;;;;;;;24.30;92.90;;;;;;5031598;28;20062;-53
2022/07/11 07:55:12;;;;;;;;;;;24.30;92.70;;;;;;5049031;28;19935;-51
2022/07/11 07:57:40;;;;;;;;;;;24.30;92.60;;;;;;5038889;28;20403;-55
2022/07/11 08:02:53;;;;;;;;;;;24.30;92.40;;;;;;5034743;28;19928;-55
2022/07/11 08:05:21;;;;;;;;;;;24.30;92.20;;;;;;5031481;28;19933;-53
2022/07/11 08:07:48;;;;;;;;;;;24.30;92.30;;;;;;5032083;28;20384;-56
2022/07/11 08:10:15;;;;;;;;;;;24.20;92.20;;;;;;5053526;28;19955;-53
2022/07/11 08:12:42;;;;;;;;;;;24.10;92.20;;;;;;5061605;28;19929;-49
2022/07/11 08:15:10;;;;;;;;;;;24.10;92.10;;;;;;5043497;28;19940;-49
2022/07/11 08:17:37;;;;;;;;;;;24.10;92.10;;;;;;5048093;28;19929;-50
2022/07/11 08:20:05;;;;;;;;;;;24.20;92.10;;;;;;5047462;28;19929;-53
2022/07/11 08:22:32;;;;;;;;;;;24.20;92.10;;;;;;5047432;28;19986;-53
2022/07/11 08:25:00;;;;;;;;;;;24.20;92.20;;;;;;5038867;28;19955;-49
2022/07/11 08:27:27;;;;;;;;;;;24.20;92.20;;;;;;5029922;28;20385;-53
2022/07/11 08:30:07;;;;;;;;;;;24.20;92.20;;;;;;5041392;28;19929;-49
2022/07/11 08:32:39;;;;;;;;;;;24.20;92.20;;;;;;5043097;28;19958;-53
2022/07/11 08:35:07;;;;;;;;;;;24.20;92.20;;;;;;5035895;28;19980;-51
2022/07/11 08:37:34;;;;;;;;;;;24.20;92.20;;;;;;5034123;28;19952;-53
2022/07/11 08:40:01;;;;;;;;;;;24.20;92.20;;;;;;5035609;28;19932;-49
2022/07/11 08:42:30;;;;;;;;;;;24.20;92.20;;;;;;5052711;28;20372;-53
2022/07/11 08:44:57;;;;;;;;;;;24.20;92.20;;;;;;5036341;28;19936;-53
2022/07/11 08:47:25;;;;;;;;;;;24.20;92.50;;;;;;5047902;28;19929;-47
2022/07/11 08:49:52;;;;;;;;;;;24.20;92.30;;;;;;5035461;28;19933;-51
2022/07/11 08:52:19;;;;;;;;;;;24.20;92.20;;;;;;5027457;28;20278;-51
2022/07/11 08:54:47;;;;;;;;;;;24.20;92.30;;;;;;5025115;28;19929;-48
2022/07/11 08:57:15;;;;;;;;;;;24.20;92.30;;;;;;5027711;28;19940;-50
2022/07/11 08:59:43;;;;;;;;;;;24.20;92.30;;;;;;5043282;28;20290;-54
2022/07/11 09:02:12;;;;;;;;;;;24.20;92.30;;;;;;5028998;28;19933;-51
2022/07/11 09:04:39;;;;;;;;;;;24.20;92.30;;;;;;5036494;28;19935;-49
2022/07/11 09:07:07;;;;;;;;;;;24.20;92.30;;;;;;5029289;28;20023;-50
2022/07/11 09:09:34;;;;;;;;;;;24.20;92.30;;;;;;5032240;28;19931;-50
2022/07/11 09:12:09;;;;;;;;;;;24.20;92.30;;;;;;5045815;28;19925;-50
2022/07/11 09:14:36;;;;;;;;;;;24.20;92.20;;;;;;5011239;28;20336;-51
2022/07/11 09:17:05;;;;;;;;;;;24.20;92.30;;;;;;5046839;28;19933;-51
2022/07/11 09:19:34;;;;;;;;;;;24.20;92.20;;;;;;5036519;28;19936;-52
2022/07/11 09:27:53;;;;;;;;;;;24.20;92.20;;;;;;5029993;28;19936;-51
2022/07/11 09:30:22;;;;;;;;;;;24.30;92.20;;;;;;5018461;28;19940;-53
2022/07/11 09:32:55;;;;;;;;;;;24.20;92.20;;;;;;5045158;28;19928;-53
2022/07/11 09:35:23;;;;;;;;;;;24.30;92.60;;;;;;5037869;28;19929;-59
2022/07/11 09:37:51;;;;;;;;;;;24.20;92.40;;;;;;5038160;28;19956;-51
2022/07/11 09:40:18;;;;;;;;;;;24.30;92.50;;;;;;5040364;28;19929;-58
2022/07/11 09:42:50;;;;;;;;;;;24.30;92.60;;;;;;5028418;28;20329;-58
2022/07/11 09:45:18;;;;;;;;;;;24.30;92.60;;;;;;5036088;28;20498;-60
2022/07/11 09:47:46;;;;;;;;;;;24.30;92.60;;;;;;5051957;28;19929;-52
2022/07/11 09:50:18;;;;;;;;;;;24.40;92.60;;;;;;5051042;28;19929;-55
2022/07/11 09:52:58;;;;;;;;;;;24.40;92.70;;;;;;5030367;28;19938;-56
2022/07/11 09:55:25;;;;;;;;;;;24.40;92.70;;;;;;5033375;28;20318;-56
2022/07/11 09:58:14;;;;;;;;;;;24.50;92.60;;;;;;5044926;28;20434;-55
2022/07/11 10:00:42;;;;;;;;;;;24.50;92.50;;;;;;5045414;28;19955;-50
2022/07/11 10:03:11;;;;;;;;;;;24.50;92.50;;;;;;5036770;28;19932;-51
2022/07/11 10:05:58;;;;;;;;;;;24.40;92.10;;;;;;5040452;28;19940;-56
2022/07/11 10:08:25;;;;;;;;;;;24.40;92.00;;;;;;5040145;28;19969;-54
2022/07/11 10:10:53;;;;;;;;;;;24.40;92.00;;;;;;5034453;28;19940;-54
2022/07/11 10:13:20;;;;;;;;;;;24.40;92.10;;;;;;5044327;28;19929;-55
2022/07/11 10:15:47;;;;;;;;;;;24.40;92.00;;;;;;5044694;28;19936;-54
2022/07/11 10:18:39;;;;;;;;;;;24.50;91.90;;;;;;5042395;28;19940;-52
2022/07/11 10:21:09;;;;;;;;;;;24.40;91.70;;;;;;5031304;28;19941;-51
2022/07/11 10:23:39;;;;;;;;;;;24.50;91.60;;;;;;5032699;28;20285;-51
2022/07/11 10:26:21;;;;;;;;;;;24.40;91.40;;;;;;5033183;28;19928;-50
2022/07/11 10:28:52;;;;;;;;;;;24.40;91.40;;;;;;5043914;28;19929;-56
2022/07/11 10:31:23;;;;;;;;;;;24.40;91.30;;;;;;5041110;28;19974;-54
2022/07/11 10:34:04;;;;;;;;;;;24.40;91.30;;;;;;5047402;28;19924;-53
2022/07/11 10:36:32;;;;;;;;;;;24.40;91.30;;;;;;5053214;28;20150;-51
2022/07/11 10:39:15;;;;;;;;;;;24.40;91.10;;;;;;5046428;28;19924;-57
2022/07/11 10:41:42;;;;;;;;;;;24.40;91.10;;;;;;5027609;28;20337;-53
2022/07/11 10:44:10;;;;;;;;;;;24.50;91.20;;;;;;5022825;28;19929;-54
2022/07/11 10:46:37;;;;;;;;;;;24.40;91.20;;;;;;5025512;28;19970;-51
2022/07/11 10:49:14;;;;;;;;;;;24.50;91.20;;;;;;5032954;28;19938;-50
2022/07/11 10:51:45;;;;;;;;;;;24.40;91.20;;;;;;5027638;28;19929;-54
2022/07/11 10:54:51;;;;;;;;;;;24.40;91.30;;;;;;5037679;28;19933;-54
2022/07/11 10:57:18;;;;;;;;;;;24.40;91.30;;;;;;5030790;28;19929;-52
2022/07/11 11:00:03;;;;;;;;;;;24.40;91.40;;;;;;5037586;28;19929;-53
2022/07/11 11:02:31;;;;;;;;;;;24.50;91.40;;;;;;5034773;28;19929;-52
2022/07/11 11:04:59;;;;;;;;;;;24.40;91.40;;;;;;5036727;28;19953;-54
2022/07/11 11:07:35;;;;;;;;;;;24.50;91.50;;;;;;5030447;28;19937;-54
2022/07/11 11:10:04;;;;;;;;;;;24.50;91.50;;;;;;5037473;28;19936;-55
2022/07/11 11:12:51;;;;;;;;;;;24.40;91.50;;;;;;5023751;28;20300;-53
2022/07/11 11:15:37;;;;;;;;;;;24.40;91.50;;;;;;5031468;28;19929;-55
2022/07/11 11:18:25;;;;;;;;;;;24.50;91.60;;;;;;5045755;28;20388;-52
2022/07/11 11:21:02;;;;;;;;;;;24.50;91.60;;;;;;5026915;28;20174;-50
2022/07/11 11:23:29;;;;;;;;;;;24.40;91.60;;;;;;5038948;28;19939;-49
2022/07/11 11:26:07;;;;;;;;;;;24.50;91.70;;;;;;5043627;28;19929;-50
2022/07/11 11:28:34;;;;;;;;;;;24.40;91.70;;;;;;5033663;28;19929;-54
2022/07/11 11:31:03;;;;;;;;;;;24.50;91.70;;;;;;5036768;28;20255;-50
2022/07/11 11:33:31;;;;;;;;;;;24.50;91.70;;;;;;5029489;28;19947;-54
2022/07/11 11:36:02;;;;;;;;;;;24.40;91.70;;;;;;5038570;28;19929;-54
2022/07/11 11:38:32;;;;;;;;;;;24.40;91.70;;;;;;5031024;28;19936;-49
2022/07/11 11:41:00;;;;;;;;;;;24.50;91.80;;;;;;5038655;28;19928;-51
2022/07/11 11:43:28;;;;;;;;;;;24.40;91.70;;;;;;5045424;28;20397;-55
2022/07/11 11:45:55;;;;;;;;;;;24.50;91.80;;;;;;5035664;28;20020;-52
2022/07/11 11:48:45;;;;;;;;;;;24.50;91.80;;;;;;5046008;28;19929;-57
2022/07/11 11:51:13;;;;;;;;;;;24.40;91.80;;;;;;5043305;28;20407;-50
2022/07/11 11:53:46;;;;;;;;;;;24.40;91.80;;;;;;5036820;28;19925;-52
2022/07/11 11:56:20;;;;;;;;;;;24.40;91.80;;;;;;5034262;28;19925;-52
2022/07/11 11:58:48;;;;;;;;;;;24.40;91.80;;;;;;5040194;28;19925;-58
2022/07/11 12:01:24;;;;;;;;;;;24.50;91.90;;;;;;5052448;28;20379;-55
2022/07/11 12:03:54;;;;;;;;;;;24.40;91.80;;;;;;5037549;28;19948;-56
2022/07/11 13:58:47;;;;;;;;;;;24.70;91.90;;;;;;5028243;28;20238;-51
2022/07/11 14:01:14;;;;;;;;;;;24.80;91.90;;;;;;5020706;28;19936;-52
2022/07/11 14:03:41;;;;;;;;;;;24.80;91.80;;;;;;5010685;28;20309;-53
2022/07/11 14:06:08;;;;;;;;;;;24.90;91.70;;;;;;5021669;28;19925;-54
2022/07/11 14:08:35;;;;;;;;;;;25.00;91.60;;;;;;5020732;28;19925;-53
2022/07/11 14:11:02;;;;;;;;;;;25.10;91.50;;;;;;5035114;28;19932;-54
2022/07/11 14:13:30;;;;;;;;;;;25.20;91.40;;;;;;5017007;28;19929;-55
2022/07/11 14:15:57;;;;;;;;;;;25.20;91.30;;;;;;5024593;28;20392;-53
2022/07/11 14:18:32;;;;;;;;;;;25.30;91.30;;;;;;5024269;28;19929;-55
2022/07/11 14:20:59;;;;;;;;;;;25.40;91.20;;;;;;5007700;28;19936;-55
2022/07/11 14:23:26;;;;;;;;;;;25.40;91.20;;;;;;5013518;28;20317;-53
2022/07/11 14:25:54;;;;;;;;;;;25.40;91.20;;;;;;5019362;28;19929;-56
2022/07/11 14:28:21;;;;;;;;;;;25.40;91.20;;;;;;5025848;28;19940;-53
2022/07/11 14:30:52;;;;;;;;;;;25.30;91.20;;;;;;5016208;28;19929;-56
2022/07/11 14:33:20;;;;;;;;;;;25.20;91.30;;;;;;5025227;28;20413;-55
2022/07/11 14:35:47;;;;;;;;;;;25.20;91.40;;;;;;5023596;28;19932;-54
2022/07/11 14:38:15;;;;;;;;;;;25.20;91.40;;;;;;5029509;28;19929;-50
2022/07/11 14:40:42;;;;;;;;;;;25.10;91.40;;;;;;5036463;28;20028;-54
2022/07/11 14:43:09;;;;;;;;;;;25.10;91.70;;;;;;5026254;28;20407;-57
2022/07/11 14:45:36;;;;;;;;;;;25.20;91.40;;;;;;5042498;28;19936;-55
2022/07/11 14:48:04;;;;;;;;;;;25.20;91.40;;;;;;5041203;28;19975;-55
2022/07/11 14:50:33;;;;;;;;;;;25.30;91.30;;;;;;5035087;28;19929;-58
2022/07/11 14:53:01;;;;;;;;;;;25.40;91.30;;;;;;5045512;28;20396;-52
2022/07/11 14:55:28;;;;;;;;;;;25.30;91.20;;;;;;5044512;28;19929;-57
2022/07/11 14:57:55;;;;;;;;;;;25.30;91.30;;;;;;5032805;28;19940;-56
2022/07/11 15:00:23;;;;;;;;;;;25.30;91.20;;;;;;5035539;28;20323;-55
2022/07/11 15:05:36;;;;;;;;;;;25.50;91.20;;;;;;5039987;28;19936;-56
2022/07/11 15:13:36;;;;;;;;;;;25.80;90.90;;;;;;5023097;28;19932;-53
2022/07/11 15:16:03;;;;;;;;;;;25.80;90.70;;;;;;5033973;28;20642;-55
2022/07/11 15:18:30;;;;;;;;;;;25.90;90.70;;;;;;5048847;28;19940;-56
2022/07/11 15:20:58;;;;;;;;;;;25.90;90.70;;;;;;5034996;28;19945;-56
2022/07/11 15:23:25;;;;;;;;;;;25.80;90.70;;;;;;5050706;28;19928;-57
2022/07/11 15:25:53;;;;;;;;;;;25.70;90.80;;;;;;5031956;28;19929;-53
2022/07/11 15:28:20;;;;;;;;;;;25.60;90.90;;;;;;5039759;28;19933;-55
2022/07/11 15:30:59;;;;;;;;;;;25.60;91.00;;;;;;5033128;28;19947;-55
2022/07/11 15:33:26;;;;;;;;;;;25.70;91.00;;;;;;5042689;28;19929;-58
2022/07/11 15:35:55;;;;;;;;;;;25.80;90.90;;;;;;5032760;28;19933;-53
2022/07/11 15:38:22;;;;;;;;;;;25.80;90.80;;;;;;5039543;28;19926;-55
2022/07/11 15:40:49;;;;;;;;;;;26.00;90.70;;;;;;5032602;28;19933;-55
2022/07/11 15:43:17;;;;;;;;;;;26.00;90.70;;;;;;5043387;28;20389;-59
2022/07/11 15:45:44;;;;;;;;;;;26.00;90.60;;;;;;5038152;28;19956;-56
2022/07/11 15:48:11;;;;;;;;;;;26.10;90.80;;;;;;5028567;28;20395;-55
2022/07/11 15:50:39;;;;;;;;;;;26.10;90.50;;;;;;5041900;28;19929;-57
2022/07/11 15:53:06;;;;;;;;;;;26.10;90.50;;;;;;5044670;28;20480;-55
2022/07/11 15:55:33;;;;;;;;;;;26.10;90.50;;;;;;5035659;28;19940;-59
2022/07/11 15:58:00;;;;;;;;;;;26.10;90.50;;;;;;5043440;28;19940;-57
2022/07/11 16:00:28;;;;;;;;;;;26.00;90.50;;;;;;5048775;28;19936;-57
2022/07/11 16:02:56;;;;;;;;;;;26.00;90.60;;;;;;5048434;28;19943;-55
2022/07/11 16:05:23;;;;;;;;;;;26.10;90.60;;;;;;5034092;28;19945;-55
2022/07/11 16:07:50;;;;;;;;;;;26.00;90.60;;;;;;5033442;28;20317;-57
2022/07/11 16:10:18;;;;;;;;;;;26.00;90.70;;;;;;5042456;28;19929;-58
2022/07/11 16:12:45;;;;;;;;;;;25.90;90.60;;;;;;5046790;28;19936;-58
2022/07/11 16:15:13;;;;;;;;;;;25.90;90.70;;;;;;5045515;28;19948;-56
2022/07/11 16:17:40;;;;;;;;;;;25.80;90.70;;;;;;5034539;28;19929;-55
2022/07/11 16:20:07;;;;;;;;;;;25.80;90.80;;;;;;5036017;28;20455;-57
2022/07/11 16:22:40;;;;;;;;;;;25.80;90.80;;;;;;5037676;28;19932;-55
2022/07/11 16:25:13;;;;;;;;;;;25.80;90.80;;;;;;5046563;28;20324;-57
2022/07/11 16:27:40;;;;;;;;;;;25.70;90.90;;;;;;5033753;28;19925;-56
2022/07/11 16:30:08;;;;;;;;;;;25.70;90.90;;;;;;5035556;28;19936;-53
2022/07/11 16:32:35;;;;;;;;;;;25.70;90.90;;;;;;5052696;28;19933;-50
2022/07/11 16:35:02;;;;;;;;;;;25.60;90.90;;;;;;5038145;28;19932;-57